Time;durP1;ratioP1;P1;durP2;ratioP2;P2;SDS_P1;SDS_P2;PMS_P1;PMS_P2;Temp;Humidity;BMP_temperature;BMP_pressure;BME280_temperature;BME280_humidity;BME280_pressure;Samples;Min_cycle;Max_cycle;Signal;HPM_P1;HPM_P2
2022/03/25 00:04:33;;;;;;;4.43;2.35;;;;;;;1.35;100.00;100359.31;10413403;28;20121;-83
2022/03/25 00:09:34;;;;;;;2.90;1.85;;;;;;;0.21;100.00;100164.25;10428694;28;20054;-83
2022/03/25 00:14:35;;;;;;;5.63;1.85;;;;;;;1.08;100.00;100316.78;10413267;28;20033;-83
2022/03/25 00:19:36;;;;;;;3.80;1.70;;;;;;;0.93;100.00;100275.97;10413302;28;20120;-83
2022/03/25 00:24:37;;;;;;;3.13;1.40;;;;;;;0.63;100.00;100225.75;10412362;28;20100;-82
2022/03/25 00:29:38;;;;;;;1.83;1.02;;;;;;;0.77;100.00;100234.38;10414328;28;20042;-82
2022/03/25 00:34:38;;;;;;;1.83;1.00;;;;;;;1.46;100.00;100347.22;10421143;28;20488;-83
2022/03/25 00:39:39;;;;;;;6.75;1.50;;;;;;;1.47;100.00;100348.91;10421125;28;20041;-82
2022/03/25 00:44:40;;;;;;;5.90;1.77;;;;;;;1.26;100.00;100310.22;10420652;28;20033;-83
2022/03/25 00:49:42;;;;;;;2.13;1.20;;;;;;;1.40;100.00;100352.91;10426484;28;20164;-83
2022/03/25 00:54:43;;;;;;;2.10;1.27;;;;;;;0.75;100.00;100242.34;10458577;28;20074;-83
2022/03/25 00:59:44;;;;;;;2.70;1.70;;;;;;;1.20;100.00;100308.06;10460913;28;20447;-83
2022/03/25 01:04:45;;;;;;;2.80;1.60;;;;;;;1.43;100.00;100350.88;10461382;28;20069;-83
2022/03/25 01:09:46;;;;;;;2.20;1.40;;;;;;;1.40;100.00;100348.50;10460853;28;20134;-83
2022/03/25 01:14:48;;;;;;;2.55;1.38;;;;;;;1.31;100.00;100334.28;10460847;28;20033;-83
2022/03/25 01:19:49;;;;;;;2.20;1.13;;;;;;;0.80;100.00;100235.00;10461091;28;20064;-84
2022/03/25 01:24:50;;;;;;;5.28;2.67;;;;;;;0.36;100.00;100165.78;10460784;28;20045;-84
2022/03/25 01:29:51;;;;;;;3.25;1.30;;;;;;;0.75;100.00;100247.56;10460252;28;20037;-84
2022/03/25 01:34:51;;;;;;;1.63;0.80;;;;;;;-0.20;100.00;100086.13;10460293;28;20546;-84
2022/03/25 01:39:52;;;;;;;1.63;0.73;;;;;;;1.16;100.00;100321.44;10466384;28;20051;-83
2022/03/25 01:44:53;;;;;;;1.63;0.80;;;;;;;-0.23;100.00;100084.56;10468344;28;20071;-83
2022/03/25 01:49:54;;;;;;;1.63;0.88;;;;;;;0.63;100.00;100230.13;10474667;28;20519;-83
2022/03/25 01:55:15;;;;;;;1.25;0.80;;;;;;;1.29;100.00;100340.59;10481880;28;20047;-84
2022/03/25 02:00:17;;;;;;;2.40;1.17;;;;;;;-0.30;100.00;100098.94;10480398;28;20039;-83
2022/03/25 02:05:18;;;;;;;3.53;1.85;;;;;;;1.35;100.00;100376.78;10476579;28;20049;-83
2022/03/25 02:10:19;;;;;;;3.50;2.10;;;;;;;1.19;100.00;100322.06;10473298;28;20047;-84
2022/03/25 02:15:33;;;;;;;4.15;2.10;;;;;;;1.34;100.00;100351.53;10474216;28;20067;-83
2022/03/25 02:20:34;;;;;;;2.27;1.30;;;;;;;1.47;100.00;100373.31;10473427;28;20052;-84
2022/03/25 02:25:36;;;;;;;2.90;1.67;;;;;;;0.96;100.00;100283.59;10466485;28;20055;-83
2022/03/25 02:30:37;;;;;;;4.22;1.70;;;;;;;1.27;100.00;100327.59;10459171;28;20087;-84
2022/03/25 02:35:49;;;;;;;2.10;1.20;;;;;;;1.55;100.00;100370.13;10457059;28;20041;-84
2022/03/25 02:40:51;;;;;;;1.98;1.02;;;;;;;1.26;100.00;100335.56;10458711;28;20045;-83
2022/03/25 02:45:52;;;;;;;1.65;1.00;;;;;;;0.47;100.00;100201.59;10457903;28;20382;-84
2022/03/25 02:50:53;;;;;;;1.38;0.65;;;;;;;0.79;100.00;100256.88;10457119;28;20041;-84
2022/03/25 02:55:54;;;;;;;1.60;0.80;;;;;;;1.21;100.00;100322.81;10451992;28;20080;-83
2022/03/25 03:00:55;;;;;;;2.55;1.17;;;;;;;1.20;100.00;100313.28;10455480;28;20047;-84
2022/03/25 03:05:56;;;;;;;4.25;1.00;;;;;;;1.55;100.00;100383.22;10434369;28;20373;-84
2022/03/25 03:10:57;;;;;;;1.05;0.60;;;;;;;1.39;100.00;100361.72;10461373;28;20068;-83
2022/03/25 03:15:58;;;;;;;1.05;0.52;;;;;;;1.62;100.00;100397.56;10471811;28;20045;-83
2022/03/25 03:20:59;;;;;;;1.67;0.50;;;;;;;1.31;100.00;100349.97;10465198;28;20060;-83
2022/03/25 03:26:00;;;;;;;1.00;0.47;;;;;;;1.62;100.00;100404.59;10461506;28;20041;-81
2022/03/25 03:31:01;;;;;;;1.45;0.90;;;;;;;0.58;100.00;100225.22;10463065;28;20580;-83
2022/03/25 03:36:03;;;;;;;0.68;0.40;;;;;;;1.58;100.00;100377.75;10464248;28;20135;-83
2022/03/25 03:41:04;;;;;;;1.25;0.50;;;;;;;1.28;100.00;100341.50;10453715;28;20310;-85
2022/03/25 03:46:05;;;;;;;1.15;0.57;;;;;;;1.44;100.00;100383.16;10466174;28;20104;-84
2022/03/25 03:51:05;;;;;;;2.03;0.95;;;;;;;1.78;100.00;100413.00;10465050;28;20044;-84
2022/03/25 03:56:06;;;;;;;13.00;7.25;;;;;;;0.95;100.00;100281.94;10462228;28;20041;-84
2022/03/25 04:01:07;;;;;;;7.07;3.78;;;;;;;1.81;100.00;100418.84;10461320;28;20044;-84
2022/03/25 04:06:09;;;;;;;8.90;5.20;;;;;;;1.73;100.00;100402.00;10460603;28;20090;-84
2022/03/25 04:11:10;;;;;;;7.05;4.78;;;;;;;1.81;100.00;100408.38;10439434;28;20513;-80
2022/03/25 04:16:11;;;;;;;4.20;2.17;;;;;;;1.95;100.00;100420.50;10451218;28;20049;-83
2022/03/25 04:21:12;;;;;;;1.40;0.70;;;;;;;1.59;100.00;100364.56;10451381;28;20076;-83
2022/03/25 04:26:13;;;;;;;3.97;1.00;;;;;;;1.67;100.00;100366.63;10453700;28;20037;-81
2022/03/25 04:31:14;;;;;;;2.10;1.20;;;;;;;1.26;100.00;100297.16;10454435;28;20485;-82
2022/03/25 04:36:15;;;;;;;0.70;0.40;;;;;;;2.12;100.00;100424.50;10452595;28;20056;-81
2022/03/25 04:41:16;;;;;;;2.08;0.32;;;;;;;1.90;100.00;100391.16;10448811;28;20077;-81
2022/03/25 04:46:17;;;;;;;5.60;2.03;;;;;;;1.93;100.00;100398.81;10451115;28;20065;-70
2022/03/25 04:51:18;;;;;;;4.90;3.13;;;;;;;2.15;100.00;100439.16;10452512;28;20056;-81
2022/03/25 04:56:19;;;;;;;2.80;1.10;;;;;;;2.20;100.00;100427.41;10454153;28;20063;-83
2022/03/25 05:01:20;;;;;;;3.65;1.90;;;;;;;2.11;100.00;100401.88;10452872;28;20041;-81
2022/03/25 05:06:21;;;;;;;10.02;5.78;;;;;;;1.91;100.00;100360.56;10453489;28;20033;-81
2022/03/25 05:11:22;;;;;;;2.38;1.20;;;;;;;0.95;99.46;100193.00;10452811;28;20045;-80
2022/03/25 05:16:22;;;;;;;2.38;0.88;;;;;;;2.22;98.77;100409.78;10455653;28;20127;-81
2022/03/25 05:21:23;;;;;;;5.43;3.10;;;;;;;2.20;98.97;100401.19;10460986;28;20060;-81
2022/03/25 05:26:24;;;;;;;5.68;2.08;;;;;;;1.72;99.00;100327.84;10459823;28;20159;-80
2022/03/25 05:31:25;;;;;;;4.00;1.92;;;;;;;2.43;99.77;100444.06;10459484;28;20037;-81
2022/03/25 05:36:25;;;;;;;3.70;2.17;;;;;;;2.33;99.50;100379.31;10459790;28;20167;-81
2022/03/25 05:41:29;;;;;;;2.40;1.30;;;;;;;2.83;99.32;100442.88;10459779;28;20055;-81
2022/03/25 05:46:30;;;;;;;6.13;0.80;;;;;;;2.61;98.69;100399.91;10459071;28;20067;-81
2022/03/25 05:51:31;;;;;;;1.42;0.40;;;;;;;2.28;98.20;100335.09;10459380;28;20036;-81
2022/03/25 05:56:32;;;;;;;0.93;0.45;;;;;;;2.23;97.71;100314.47;10458761;28;20124;-80
2022/03/25 06:01:33;;;;;;;1.20;0.30;;;;;;;2.29;97.59;100334.97;10458779;28;20120;-80
2022/03/25 06:06:33;;;;;;;2.22;0.70;;;;;;;2.02;97.48;100275.00;10458256;28;20045;-81
2022/03/25 06:11:34;;;;;;;0.98;0.45;;;;;;;2.89;97.67;100408.31;10457942;28;20581;-80
2022/03/25 06:16:35;;;;;;;2.30;0.90;;;;;;;3.06;97.73;100428.84;10458034;28;20071;-80
2022/03/25 06:21:36;;;;;;;2.63;1.30;;;;;;;2.48;97.58;100325.72;10459035;28;20451;-80
2022/03/25 06:26:37;;;;;;;1.65;0.90;;;;;;;3.17;97.60;100444.63;10457368;28;20037;-79
2022/03/25 06:31:38;;;;;;;0.85;0.50;;;;;;;3.33;97.26;100432.94;10457978;28;20040;-79
2022/03/25 06:36:39;;;;;;;0.63;0.30;;;;;;;3.72;95.87;100446.50;10457229;28;20036;-79
2022/03/25 06:41:40;;;;;;;2.20;0.65;;;;;;;3.24;96.04;100339.97;10457011;28;20068;-80
2022/03/25 06:46:41;;;;;;;1.42;0.80;;;;;;;3.08;95.97;100293.09;10457264;28;20127;-81
2022/03/25 06:51:42;;;;;;;3.53;1.98;;;;;;;3.12;95.31;100260.38;10457213;28;20033;-79
2022/03/25 06:56:43;;;;;;;4.82;1.63;;;;;;;4.47;95.41;100435.19;10456325;28;20510;-79
2022/03/25 07:01:44;;;;;;;1.75;0.80;;;;;;;4.77;93.47;100440.53;10456874;28;20052;-79
2022/03/25 07:06:48;;;;;;;1.60;0.90;;;;;;;4.98;94.27;100451.06;10456475;28;20049;-79
2022/03/25 07:11:49;;;;;;;1.95;0.88;;;;;;;5.06;91.84;100439.06;10456302;28;20124;-78
2022/03/25 07:16:50;;;;;;;3.80;1.40;;;;;;;4.99;93.37;100431.66;10455445;28;20200;-78
2022/03/25 07:21:55;;;;;;;2.38;1.30;;;;;;;5.11;92.03;100428.94;10455430;28;20060;-78
2022/03/25 07:26:55;;;;;;;;;;;;;;;5.46;91.94;100442.56;10456231;28;20480;-79
2022/03/25 07:31:56;;;;;;;2.25;1.35;;;;;;;5.07;90.66;100417.84;10455499;28;19959;-79
2022/03/25 07:36:57;;;;;;;2.13;1.17;;;;;;;5.23;91.37;100455.09;10454766;28;20043;-79
2022/03/25 07:41:58;;;;;;;1.98;1.20;;;;;;;5.24;91.20;100434.84;10454269;28;20051;-79
2022/03/25 07:46:59;;;;;;;2.53;1.42;;;;;;;4.31;90.53;100304.13;10455459;28;20045;-79
2022/03/25 07:52:03;;;;;;;2.28;1.20;;;;;;;4.90;91.18;100392.94;10454864;28;20037;-79
2022/03/25 07:57:04;;;;;;;1.60;1.00;;;;;;;5.09;90.77;100450.16;10454283;28;20043;-79
2022/03/25 08:02:06;;;;;;;1.63;1.08;;;;;;;5.00;90.58;100433.34;10454737;28;20429;-79
2022/03/25 08:07:07;;;;;;;2.20;1.30;;;;;;;4.76;90.16;100401.19;10454049;28;20048;-78
2022/03/25 08:12:08;;;;;;;1.88;1.20;;;;;;;5.07;90.02;100441.53;10454956;28;20044;-79
2022/03/25 08:17:09;;;;;;;2.05;1.20;;;;;;;4.37;89.79;100295.72;10453711;28;20044;-78
2022/03/25 08:22:09;;;;;;;2.42;1.48;;;;;;;4.23;89.50;100285.53;10454637;28;20071;-78
2022/03/25 08:32:29;;;;;;;3.47;2.10;;;;;;;4.85;89.28;100368.00;10453449;28;20045;-79
2022/03/25 08:37:30;;;;;;;3.22;1.95;;;;;;;5.35;89.84;100441.81;10453689;28;20033;-78
2022/03/25 08:42:31;;;;;;;4.55;3.42;;;;;;;5.55;89.57;100448.00;10453088;28;20142;-78
2022/03/25 08:47:31;;;;;;;2.97;2.28;;;;;;;4.89;89.16;100283.38;10453615;28;20067;-78
2022/03/25 08:52:32;;;;;;;3.50;1.88;;;;;;;5.75;87.64;100407.56;10457467;28;20073;-78
2022/03/25 08:57:34;;;;;;;5.18;1.70;;;;;;;5.44;86.89;100325.97;10461677;28;20049;-77
2022/03/25 09:02:34;;;;;;;1.90;1.08;;;;;;;6.09;86.75;100433.63;10461535;28;20060;-79
2022/03/25 09:07:37;;;;;;;2.92;0.90;;;;;;;5.96;86.86;100398.78;10460661;28;20515;-79
2022/03/25 09:12:37;;;;;;;1.90;1.20;;;;;;;6.05;87.07;100437.50;10460396;28;20044;-78
2022/03/25 09:17:42;;;;;;;1.70;0.98;;;;;;;6.00;86.67;100422.06;10460156;28;20094;-78
2022/03/25 09:22:44;;;;;;;1.40;0.90;;;;;;;6.16;87.51;100425.03;10460683;28;20052;-80
2022/03/25 09:27:44;;;;;;;1.08;0.68;;;;;;;6.16;85.48;100410.97;10460471;28;20087;-80
2022/03/25 09:32:45;;;;;;;1.35;0.80;;;;;;;5.92;85.42;100343.66;10460166;28;20105;-80
2022/03/25 09:37:48;;;;;;;3.72;0.88;;;;;;;6.32;86.01;100428.91;10446787;28;20037;-80
2022/03/25 09:42:51;;;;;;;1.20;0.73;;;;;;;6.35;84.96;100437.38;10425328;28;20421;-80
2022/03/25 09:47:54;;;;;;;1.92;1.15;;;;;;;6.26;85.43;100432.13;10430717;28;20033;-80
2022/03/25 09:52:55;;;;;;;4.10;1.25;;;;;;;6.21;85.26;100429.88;10416497;28;20140;-81
2022/03/25 09:57:56;;;;;;;2.28;1.40;;;;;;;5.09;85.76;100251.84;10417401;28;20159;-81
2022/03/25 10:02:58;;;;;;;3.13;1.73;;;;;;;6.29;85.10;100431.84;10418099;28;20037;-80
2022/03/25 10:07:59;;;;;;;2.25;1.58;;;;;;;6.12;84.91;100381.41;10439211;28;20500;-80
2022/03/25 10:13:03;;;;;;;3.22;1.80;;;;;;;6.13;84.61;100440.28;10462896;28;20071;-77
2022/03/25 10:18:07;;;;;;;6.85;3.22;;;;;;;6.01;84.76;100428.19;10448370;28;20060;-78
2022/03/25 10:23:12;;;;;;;3.37;1.90;;;;;;;6.15;85.65;100435.69;10449518;28;20483;-77
2022/03/25 10:28:40;;;;;;;3.13;1.85;;;;;;;5.71;84.91;100396.47;10442249;28;20292;-78
2022/03/25 10:33:46;;;;;;;3.28;2.00;;;;;;;6.02;85.40;100422.78;10446308;28;20045;-77
2022/03/25 10:39:11;;;;;;;4.15;2.33;;;;;;;5.42;84.78;100335.78;10466329;28;20190;-78
2022/03/25 10:44:13;;;;;;;6.72;2.05;;;;;;;5.93;85.23;100429.72;10464960;28;20094;-78
2022/03/25 10:49:17;;;;;;;2.85;1.88;;;;;;;5.72;85.85;100403.41;10467096;28;20496;-78
2022/03/25 10:54:25;;;;;;;2.10;1.48;;;;;;;6.01;86.13;100436.91;10467839;28;20041;-80
2022/03/25 10:59:32;;;;;;;2.85;1.70;;;;;;;4.93;86.14;100286.56;10466133;28;20135;-78
2022/03/25 11:04:34;;;;;;;3.25;1.55;;;;;;;5.84;86.01;100427.84;10463431;28;20040;-80
2022/03/25 11:09:34;;;;;;;2.20;1.63;;;;;;;5.82;86.18;100424.50;10463850;28;20095;-78
2022/03/25 11:14:35;;;;;;;3.90;2.00;;;;;;;5.69;86.83;100429.22;10455912;28;20037;-77
2022/03/25 11:19:37;;;;;;;3.88;1.65;;;;;;;5.30;86.63;100378.19;10465720;28;20194;-77
2022/03/25 11:24:47;;;;;;;3.65;2.05;;;;;;;5.66;87.92;100434.75;10463005;28;20045;-77
2022/03/25 11:29:53;;;;;;;4.28;2.05;;;;;;;5.61;86.75;100423.75;10461303;28;20045;-78
2022/03/25 11:34:54;;;;;;;7.50;2.30;;;;;;;5.78;86.79;100449.47;10460184;28;20050;-80
2022/03/25 11:40:22;;;;;;;3.90;2.08;;;;;;;5.84;86.75;100443.66;10458341;28;20040;-79
2022/03/25 11:45:33;;;;;;;5.18;2.30;;;;;;;5.73;86.82;100451.69;10458665;28;20057;-79
2022/03/25 11:50:43;;;;;;;8.02;2.67;;;;;;;5.60;87.32;100445.81;10462623;28;20059;-78
2022/03/25 11:56:06;;;;;;;4.20;2.50;;;;;;;5.43;87.24;100421.75;10462621;28;21150;-79
2022/03/25 12:01:18;;;;;;;6.30;2.50;;;;;;;5.55;88.05;100433.03;10465170;28;20091;-78
2022/03/25 12:06:21;;;;;;;5.72;2.58;;;;;;;5.66;87.58;100471.63;10461602;28;20056;-79
2022/03/25 12:11:55;;;;;;;6.40;3.47;;;;;;;5.57;90.32;100468.00;10461765;28;20053;-77
2022/03/25 12:16:58;;;;;;;9.63;3.13;;;;;;;5.61;88.95;100472.03;10465465;28;20081;-79
2022/03/25 12:22:00;;;;;;;7.93;3.17;;;;;;;5.52;89.13;100469.34;10452184;28;20144;-78
2022/03/25 12:27:05;;;;;;;5.50;2.80;;;;;;;5.15;89.74;100425.94;10449927;28;20128;-77
2022/03/25 12:32:06;;;;;;;;;;;;;;;5.54;88.36;100472.72;10455958;28;20135;-77
2022/03/25 12:37:13;;;;;;;10.20;3.05;;;;;;;5.30;90.21;100476.47;10442454;28;19927;-79
2022/03/25 12:42:14;;;;;;;7.63;3.47;;;;;;;5.24;90.57;100467.28;10456582;28;20045;-78
2022/03/25 12:47:16;;;;;;;13.57;4.10;;;;;;;4.57;90.65;100346.63;10459724;28;20543;-78
2022/03/25 12:52:24;;;;;;;12.05;4.20;;;;;;;4.58;93.01;100356.22;10456709;28;20166;-78
2022/03/25 12:57:32;;;;;;;17.38;8.82;;;;;;;4.57;92.65;100336.94;10460780;28;20136;-79
2022/03/25 13:02:36;;;;;;;11.43;3.63;;;;;;;5.48;92.08;100501.25;10461834;28;20427;-78
2022/03/25 13:07:39;;;;;;;16.80;3.78;;;;;;;5.41;92.43;100491.34;10461211;28;20051;-79
2022/03/25 13:12:42;;;;;;;18.80;5.30;;;;;;;5.26;92.57;100469.78;10460405;28;20068;-79
2022/03/25 13:17:46;;;;;;;12.45;3.90;;;;;;;5.39;92.61;100502.03;10460648;28;20086;-78
2022/03/25 13:23:00;;;;;;;14.95;3.25;;;;;;;5.42;93.11;100500.94;10460321;28;20505;-77
2022/03/25 13:28:03;;;;;;;14.73;5.78;;;;;;;5.39;92.37;100506.47;10459988;28;20119;-77
2022/03/25 13:33:25;;;;;;;9.48;3.60;;;;;;;4.75;93.99;100387.19;10458937;28;20116;-77
2022/03/25 13:38:27;;;;;;;9.57;3.80;;;;;;;5.37;92.51;100508.38;10454478;28;20041;-78
2022/03/25 13:43:36;;;;;;;11.20;3.88;;;;;;;5.32;93.31;100511.41;10458071;28;20131;-79
2022/03/25 13:48:39;;;;;;;12.88;3.80;;;;;;;5.09;92.26;100475.66;10454091;28;20382;-78
2022/03/25 13:53:40;;;;;;;11.98;4.30;;;;;;;5.22;92.45;100521.06;10457174;28;20044;-78
2022/03/25 13:58:58;;;;;;;16.73;4.90;;;;;;;5.11;92.92;100500.03;10457382;28;20392;-78
2022/03/25 14:04:07;;;;;;;16.58;5.55;;;;;;;4.86;93.86;100475.78;10453598;28;20072;-78
2022/03/25 14:09:29;;;;;;;12.55;4.88;;;;;;;5.15;95.04;100522.53;10459354;28;20039;-78
2022/03/25 14:14:35;;;;;;;23.33;6.45;;;;;;;4.46;94.85;100423.00;10454397;28;20033;-78
2022/03/25 14:19:36;;;;;;;18.75;5.65;;;;;;;4.87;94.30;100485.34;10457097;28;20508;-78
2022/03/25 14:24:38;;;;;;;17.67;5.20;;;;;;;4.96;94.21;100510.88;10457484;28;20420;-79
2022/03/25 14:29:40;;;;;;;12.93;3.65;;;;;;;4.98;94.61;100511.59;10458072;28;20091;-79
2022/03/25 14:34:41;;;;;;;10.80;4.60;;;;;;;4.31;94.46;100399.63;10458071;28;20147;-80
2022/03/25 14:39:42;;;;;;;13.50;4.50;;;;;;;4.70;93.95;100499.09;10456858;28;20148;-79
2022/03/25 14:44:45;;;;;;;19.65;10.20;;;;;;;4.06;94.61;100384.19;10457101;28;20120;-80
2022/03/25 14:49:46;;;;;;;15.38;6.80;;;;;;;4.43;94.14;100453.03;10455617;28;20114;-79
2022/03/25 14:54:47;;;;;;;23.25;8.15;;;;;;;4.78;94.50;100517.69;10456455;28;20037;-79
2022/03/25 14:59:49;;;;;;;24.60;13.75;;;;;;;4.22;94.89;100431.09;10455722;28;20045;-79
2022/03/25 15:04:50;;;;;;;21.05;9.55;;;;;;;4.20;94.77;100417.25;10456835;28;20041;-79
2022/03/25 15:09:50;;;;;;;10.00;6.55;;;;;;;5.05;95.10;100559.31;10456138;28;20040;-78
2022/03/25 15:14:51;;;;;;;13.02;6.03;;;;;;;5.00;93.93;100564.97;10461204;28;20041;-78
2022/03/25 15:19:52;;;;;;;13.25;7.25;;;;;;;4.78;94.96;100539.56;10464825;28;20094;-79
2022/03/25 15:24:53;;;;;;;11.85;7.70;;;;;;;4.74;95.17;100542.59;10460347;28;20051;-77
2022/03/25 15:35:13;;;;;;;12.00;5.35;;;;;;;4.72;95.70;100570.81;10465483;28;20540;-79
2022/03/25 15:40:15;;;;;;;11.68;5.63;;;;;;;4.75;96.08;100579.31;10436505;28;20059;-79
2022/03/25 15:45:16;;;;;;;10.35;5.10;;;;;;;3.97;95.46;100454.09;10445935;28;20033;-79
2022/03/25 15:50:17;;;;;;;10.65;5.47;;;;;;;4.51;96.15;100540.03;10443223;28;20076;-78
2022/03/25 15:55:22;;;;;;;11.35;5.80;;;;;;;3.66;96.14;100405.81;10444198;28;20051;-80
2022/03/25 16:00:25;;;;;;;7.90;5.40;;;;;;;4.69;96.29;100585.06;10440092;28;20072;-79
2022/03/25 16:05:27;;;;;;;9.75;5.10;;;;;;;4.78;96.30;100601.91;10440118;28;20045;-77
2022/03/25 16:10:30;;;;;;;10.80;4.93;;;;;;;4.63;96.47;100593.44;10448214;28;20033;-79
2022/03/25 16:15:32;;;;;;;18.40;6.90;;;;;;;4.65;97.02;100596.81;10451747;28;20037;-78
2022/03/25 16:20:34;;;;;;;11.25;6.53;;;;;;;4.45;97.23;100566.81;10448527;28;20064;-79
2022/03/25 16:25:38;;;;;;;15.40;7.63;;;;;;;4.55;97.19;100575.66;10450627;28;20053;-77
2022/03/25 16:30:39;;;;;;;10.07;6.78;;;;;;;4.82;97.27;100624.41;10451288;28;20037;-78
2022/03/25 16:35:40;;;;;;;10.40;4.97;;;;;;;4.84;97.46;100632.16;10450967;28;20051;-78
2022/03/25 16:40:41;;;;;;;19.35;11.48;;;;;;;4.73;97.46;100615.44;10452519;28;20481;-78
2022/03/25 16:45:43;;;;;;;13.25;8.02;;;;;;;4.71;97.41;100595.47;10452718;28;20040;-78
2022/03/25 16:50:43;;;;;;;15.18;8.35;;;;;;;3.88;97.41;100475.88;10451503;28;20103;-77
2022/03/25 16:55:44;;;;;;;22.02;13.05;;;;;;;3.68;97.57;100453.81;10446239;28;20752;-78
2022/03/25 17:00:45;;;;;;;20.67;13.27;;;;;;;4.65;97.80;100617.03;10444399;28;20404;-78
2022/03/25 17:05:46;;;;;;;13.80;9.55;;;;;;;4.56;98.17;100624.69;10450794;28;20029;-77
2022/03/25 17:10:48;;;;;;;11.48;7.00;;;;;;;4.43;98.32;100626.63;10450136;28;20040;-78
2022/03/25 17:15:49;;;;;;;10.23;6.28;;;;;;;4.10;98.17;100567.84;10455957;28;20083;-78
2022/03/25 17:20:50;;;;;;;16.58;6.65;;;;;;;4.19;97.85;100602.25;10458327;28;20489;-77
2022/03/25 17:25:51;;;;;;;15.40;7.85;;;;;;;4.20;98.37;100598.69;10459275;28;20497;-77
2022/03/25 17:30:55;;;;;;;18.38;11.48;;;;;;;4.34;98.83;100624.72;10459903;28;20052;-78
2022/03/25 17:35:57;;;;;;;13.63;8.93;;;;;;;4.43;99.31;100646.81;10454216;28;20049;-78
2022/03/25 17:40:58;;;;;;;49.78;30.10;;;;;;;4.32;99.30;100621.38;10459332;28;20531;-77
2022/03/25 17:45:59;;;;;;;32.15;21.67;;;;;;;4.40;98.85;100626.00;10459484;28;20119;-77
2022/03/25 17:51:01;;;;;;;35.17;22.35;;;;;;;4.43;98.64;100637.16;10460047;28;20186;-77
2022/03/25 17:56:02;;;;;;;31.02;20.33;;;;;;;4.08;98.78;100600.47;10441621;28;20042;-77
2022/03/25 18:01:03;;;;;;;16.65;10.02;;;;;;;4.12;98.32;100609.78;10417879;28;20444;-77
2022/03/25 18:06:04;;;;;;;14.95;7.20;;;;;;;3.49;98.11;100506.94;10429310;28;20100;-77
2022/03/25 18:11:04;;;;;;;12.00;5.20;;;;;;;4.10;98.70;100609.91;10417256;28;20064;-77
2022/03/25 18:16:07;;;;;;;11.15;4.90;;;;;;;3.51;98.69;100515.53;10416284;28;20614;-77
2022/03/25 18:21:08;;;;;;;11.35;4.78;;;;;;;4.18;98.89;100629.50;10417519;28;20057;-77
2022/03/25 18:26:11;;;;;;;8.32;4.88;;;;;;;4.18;98.63;100640.03;10416960;28;20132;-76
2022/03/25 18:31:12;;;;;;;12.23;5.20;;;;;;;4.07;98.94;100628.56;10422842;28;20094;-76
2022/03/25 18:36:13;;;;;;;11.43;4.85;;;;;;;4.15;99.30;100643.72;10458422;28;20481;-77
2022/03/25 18:41:14;;;;;;;14.75;5.38;;;;;;;4.19;98.80;100660.09;10457081;28;20045;-77
2022/03/25 18:46:18;;;;;;;12.25;5.45;;;;;;;2.90;99.63;100449.31;10455230;28;20416;-77
2022/03/25 18:51:19;;;;;;;;;;;;;;;4.20;98.60;100644.22;10458200;28;20659;-77
2022/03/25 18:56:20;;;;;;;8.75;4.13;;;;;;;3.28;98.53;100513.81;10456447;28;20019;-77
2022/03/25 19:01:21;;;;;;;9.57;4.88;;;;;;;4.06;98.98;100652.31;10457037;28;20133;-77
2022/03/25 19:06:22;;;;;;;12.48;5.78;;;;;;;3.77;99.00;100600.22;10456142;28;20048;-77
2022/03/25 19:11:28;;;;;;;9.77;7.13;;;;;;;3.99;99.84;100623.06;10456636;28;20044;-76
2022/03/25 19:16:29;;;;;;;15.15;8.43;;;;;;;4.08;99.35;100655.69;10455218;28;20505;-77
2022/03/25 19:21:30;;;;;;;19.27;9.65;;;;;;;3.16;100.00;100489.34;10456563;28;20061;-77
2022/03/25 19:26:30;;;;;;;12.20;7.00;;;;;;;3.84;100.00;100604.03;10456289;28;20382;-78
2022/03/25 19:31:31;;;;;;;11.27;4.82;;;;;;;4.04;100.00;100634.06;10455605;28;20033;-78
2022/03/25 19:36:32;;;;;;;19.00;9.13;;;;;;;3.84;100.00;100605.84;10454135;28;20048;-77
2022/03/25 19:41:34;;;;;;;18.60;9.85;;;;;;;3.97;100.00;100619.69;10455424;28;20131;-78
2022/03/25 19:46:35;;;;;;;15.70;8.75;;;;;;;4.06;100.00;100642.63;10455668;28;20131;-78
2022/03/25 19:51:37;;;;;;;12.77;8.30;;;;;;;3.95;100.00;100611.13;10454328;28;20563;-78
2022/03/25 19:56:38;;;;;;;25.65;11.10;;;;;;;3.16;100.00;100478.84;10449058;28;20124;-78
2022/03/25 20:01:41;;;;;;;12.13;7.28;;;;;;;3.73;99.81;100588.25;10420612;28;20156;-77
2022/03/25 20:06:42;;;;;;;11.18;5.90;;;;;;;3.86;100.00;100617.09;10412203;28;20064;-78
2022/03/25 20:11:43;;;;;;;13.55;5.95;;;;;;;3.93;99.79;100628.78;10413390;28;20049;-77
2022/03/25 20:16:44;;;;;;;13.13;6.28;;;;;;;3.14;100.00;100507.00;10412498;28;20058;-78
2022/03/25 20:21:46;;;;;;;10.65;6.28;;;;;;;3.79;100.00;100626.38;10413507;28;20412;-77
2022/03/25 20:26:47;;;;;;;13.63;5.97;;;;;;;3.62;100.00;100607.50;10412808;28;20081;-78
2022/03/25 20:31:50;;;;;;;10.27;6.22;;;;;;;3.44;100.00;100590.50;10412873;28;20045;-78
2022/03/25 20:36:51;;;;;;;13.95;6.28;;;;;;;3.02;100.00;100510.53;10412838;28;20079;-78
2022/03/25 20:41:53;;;;;;;17.65;6.35;;;;;;;3.93;100.00;100644.56;10412818;28;20485;-78
2022/03/25 20:46:54;;;;;;;12.60;6.65;;;;;;;3.74;100.00;100615.38;10415356;28;20045;-77
2022/03/25 20:51:55;;;;;;;10.45;6.45;;;;;;;3.55;100.00;100573.91;10420268;28;20037;-78
2022/03/25 20:56:56;;;;;;;11.73;6.35;;;;;;;3.97;100.00;100638.09;10420118;28;20047;-79
2022/03/25 21:01:57;;;;;;;11.20;5.63;;;;;;;3.65;100.00;100590.66;10420285;28;20651;-78
2022/03/25 21:06:59;;;;;;;8.43;5.70;;;;;;;3.13;100.00;100498.28;10420376;28;20493;-77
2022/03/25 21:12:00;;;;;;;9.85;5.63;;;;;;;4.06;100.00;100631.28;10419662;28;20046;-78
2022/03/25 21:17:01;;;;;;;14.13;5.70;;;;;;;3.30;100.00;100512.75;10425206;28;20033;-78
2022/03/25 21:22:01;;;;;;;11.77;6.20;;;;;;;2.48;100.00;100371.16;10428671;28;20057;-78
2022/03/25 21:27:04;;;;;;;15.73;6.60;;;;;;;4.08;100.00;100651.25;10419037;28;20045;-78
2022/03/25 21:32:06;;;;;;;15.02;6.45;;;;;;;4.04;100.00;100634.06;10419669;28;20038;-78
2022/03/25 21:37:07;;;;;;;14.23;6.93;;;;;;;3.62;100.00;100575.09;10419559;28;20124;-78
2022/03/25 21:42:08;;;;;;;14.13;6.35;;;;;;;4.06;100.00;100632.13;10418711;28;20045;-78
2022/03/25 21:47:09;;;;;;;16.48;6.47;;;;;;;4.05;100.00;100625.22;10418236;28;20048;-78
2022/03/25 21:52:11;;;;;;;15.60;6.57;;;;;;;4.17;100.00;100627.84;10417350;28;20508;-77
2022/03/25 21:57:12;;;;;;;10.63;6.00;;;;;;;4.14;100.00;100625.44;10416981;28;20076;-78
2022/03/25 22:02:13;;;;;;;13.00;6.63;;;;;;;3.26;100.00;100473.72;10418707;28;20079;-78
2022/03/25 22:07:14;;;;;;;14.15;6.38;;;;;;;3.68;100.00;100556.28;10417482;28;20041;-78
2022/03/25 22:12:15;;;;;;;15.63;6.80;;;;;;;3.73;100.00;100553.28;10417707;28;20454;-78
2022/03/25 22:17:15;;;;;;;14.98;6.72;;;;;;;3.81;100.00;100574.53;10417909;28;20493;-78
2022/03/25 22:22:16;;;;;;;10.15;6.25;;;;;;;3.88;100.00;100596.75;10434946;28;20535;-78
2022/03/25 22:27:17;;;;;;;12.23;6.65;;;;;;;4.04;100.00;100613.03;10458992;28;20048;-78
2022/03/25 22:32:18;;;;;;;13.32;6.95;;;;;;;4.18;100.00;100634.75;10458160;28;20048;-78
2022/03/25 22:37:19;;;;;;;30.50;12.65;;;;;;;3.32;100.00;100494.25;10458955;28;20131;-78
2022/03/25 22:42:20;;;;;;;15.57;9.05;;;;;;;4.15;100.00;100625.31;10457627;28;20045;-78
2022/03/25 22:47:22;;;;;;;17.48;8.82;;;;;;;4.14;100.00;100630.72;10457644;28;20166;-78
2022/03/25 22:52:23;;;;;;;20.42;9.30;;;;;;;3.74;100.00;100563.69;10456758;28;20045;-78
2022/03/25 22:57:24;;;;;;;18.52;9.55;;;;;;;3.25;100.00;100491.25;10456281;28;20048;-78
2022/03/25 23:02:25;;;;;;;25.67;10.18;;;;;;;4.07;100.00;100622.47;10456918;28;20132;-78
2022/03/25 23:07:26;;;;;;;21.63;12.00;;;;;;;3.97;100.00;100610.97;10456266;28;20055;-78
2022/03/25 23:12:27;;;;;;;22.38;10.43;;;;;;;4.03;100.00;100621.84;10455671;28;20132;-78
2022/03/25 23:17:28;;;;;;;22.90;11.00;;;;;;;4.03;100.00;100621.03;10456384;28;20044;-77
2022/03/25 23:22:28;;;;;;;17.98;9.25;;;;;;;3.81;100.00;100585.88;10457124;28;20542;-77
2022/03/25 23:27:29;;;;;;;19.08;8.63;;;;;;;4.04;100.00;100613.03;10455982;28;20520;-78